Time;durP1;ratioP1;P1;durP2;ratioP2;P2;SDS_P1;SDS_P2;PMS_P1;PMS_P2;Temp;Humidity;BMP_temperature;BMP_pressure;BME280_temperature;BME280_humidity;BME280_pressure;Samples;Min_cycle;Max_cycle;Signal;HPM_P1;HPM_P2
2022/12/24 00:00:19;;;;;;;20.03;9.10;;;;;;;6.70;100.00;149142.16;5009183;28;20065;-65
2022/12/24 00:02:44;;;;;;;23.50;11.17;;;;;;;6.70;100.00;149142.16;5001030;28;20022;-65
2022/12/24 00:05:09;;;;;;;24.70;10.13;;;;;;;6.67;100.00;149133.16;5014288;28;20037;-64
2022/12/24 00:07:35;;;;;;;19.80;8.73;;;;;;;6.72;100.00;149146.03;5013106;28;20427;-64
2022/12/24 00:10:01;;;;;;;20.23;9.37;;;;;;;6.72;100.00;149146.03;5013502;28;20484;-65
2022/12/24 00:12:27;;;;;;;27.13;12.30;;;;;;;6.75;100.00;149153.78;5013990;28;20100;-65
2022/12/24 00:14:52;;;;;;;26.33;12.53;;;;;;;6.69;100.00;149139.59;5012515;28;20036;-65
2022/12/24 00:17:17;;;;;;;22.67;10.07;;;;;;;6.68;100.00;149135.72;5014650;28;20030;-63
2022/12/24 00:19:43;;;;;;;31.23;12.60;;;;;;;6.66;100.00;149130.53;5013206;28;20025;-63
2022/12/24 00:22:08;;;;;;;26.50;10.27;;;;;;;6.68;100.00;149135.72;5014273;28;20025;-63
2022/12/24 00:24:34;;;;;;;32.10;12.30;;;;;;;6.70;100.00;149140.88;5014322;28;20053;-63
2022/12/24 00:26:59;;;;;;;20.20;8.43;;;;;;;6.78;100.00;149161.50;5014979;28;20128;-62
2022/12/24 00:29:24;;;;;;;18.70;7.67;;;;;;;6.76;100.00;149156.34;5012948;28;20029;-63
2022/12/24 00:31:50;;;;;;;21.10;8.73;;;;;;;6.77;100.00;149158.94;5013284;28;20107;-63
2022/12/24 00:34:15;;;;;;;31.07;12.90;;;;;;;6.69;100.00;149138.31;5013805;28;20040;-64
2022/12/24 00:36:40;;;;;;;34.40;13.27;;;;;;;6.65;100.00;149127.94;5012554;28;20033;-64
2022/12/24 00:39:06;;;;;;;38.40;13.73;;;;;;;6.63;100.00;149122.78;5014318;28;20026;-63
2022/12/24 00:41:31;;;;;;;37.77;13.97;;;;;;;6.65;100.00;149127.94;5013658;28;20473;-63
2022/12/24 00:44:00;;;;;;;37.10;13.70;;;;;;;6.67;100.00;149133.16;5014624;28;20021;-64
2022/12/24 00:46:27;;;;;;;40.63;14.30;;;;;;;6.67;100.00;149134.44;5013987;28;20022;-64
2022/12/24 00:48:53;;;;;;;31.27;11.83;;;;;;;6.76;100.00;149156.34;5012682;28;20029;-63
2022/12/24 00:51:19;;;;;;;37.77;14.00;;;;;;;6.76;100.00;149156.34;5011959;28;20026;-65
2022/12/24 00:53:45;;;;;;;38.03;14.27;;;;;;;6.72;100.00;149146.03;5012936;28;20033;-65
2022/12/24 00:56:10;;;;;;;39.73;14.47;;;;;;;6.66;100.00;149130.53;5013761;28;20038;-64
2022/12/24 00:58:36;;;;;;;41.03;14.97;;;;;;;6.67;100.00;149133.16;5014380;28;20037;-64
2022/12/24 01:01:02;;;;;;;44.67;15.13;;;;;;;6.65;100.00;149127.94;5011905;28;20037;-65
2022/12/24 01:03:36;;;;;;;45.37;14.97;;;;;;;6.66;100.00;149130.53;5013228;28;20033;-65
2022/12/24 01:06:12;;;;;;;40.53;14.13;;;;;;;6.66;100.00;149130.53;5011252;28;20022;-65
2022/12/24 01:08:38;;;;;;;41.80;15.10;;;;;;;6.68;100.00;149135.72;5012706;28;20096;-65
2022/12/24 01:11:05;;;;;;;36.30;13.47;;;;;;;6.73;100.00;149148.63;5013122;28;20044;-64
2022/12/24 01:13:31;;;;;;;41.27;15.00;;;;;;;6.69;100.00;149139.59;5012542;28;20109;-65
2022/12/24 01:15:57;;;;;;;40.27;13.50;;;;;;;6.71;100.00;149143.47;5013805;28;20157;-64
2022/12/24 01:18:23;;;;;;;37.80;13.13;;;;;;;6.76;100.00;149156.34;5012340;28;20486;-64
2022/12/24 01:21:00;;;;;;;29.77;12.23;;;;;;;6.83;100.00;149174.44;5009604;28;20757;-64
2022/12/24 01:23:26;;;;;;;34.53;13.67;;;;;;;6.80;100.00;149166.72;5012136;28;20088;-65
2022/12/24 01:25:51;;;;;;;36.30;13.57;;;;;;;6.79;100.00;149162.84;5013815;28;20050;-64
2022/12/24 01:28:18;;;;;;;33.97;13.37;;;;;;;6.75;100.00;149153.78;5013156;28;20030;-64
2022/12/24 01:30:43;;;;;;;37.13;13.60;;;;;;;6.76;100.00;149156.34;5011897;28;20148;-65
2022/12/24 01:33:09;;;;;;;34.03;12.80;;;;;;;6.82;100.00;149171.88;5013525;28;20104;-64
2022/12/24 01:35:39;;;;;;;42.40;14.77;;;;;;;6.74;100.00;149152.47;5011944;28;20030;-64
2022/12/24 01:38:04;;;;;;;42.73;14.40;;;;;;;6.71;100.00;149144.75;5012956;28;20379;-65
2022/12/24 01:43:23;;;;;;;39.47;13.50;;;;;;;6.69;100.00;149139.59;5012941;28;20048;-64
2022/12/24 01:45:58;;;;;;;43.53;14.90;;;;;;;6.68;100.00;149137.00;5012231;28;20053;-65
2022/12/24 01:48:39;;;;;;;50.17;15.00;;;;;;;6.67;100.00;149134.44;5011210;28;20037;-65
2022/12/24 01:51:07;;;;;;;51.77;15.20;;;;;;;6.67;100.00;149134.44;5012434;28;20029;-64
2022/12/24 01:53:35;;;;;;;46.50;15.10;;;;;;;6.69;100.00;149138.31;5011350;28;20470;-64
2022/12/24 01:56:01;;;;;;;47.80;14.97;;;;;;;6.72;100.00;149146.03;5010300;28;20030;-65
2022/12/24 01:58:26;;;;;;;59.13;15.53;;;;;;;6.71;100.00;149144.75;5010758;28;20032;-65
2022/12/24 02:00:52;;;;;;;52.20;15.07;;;;;;;6.74;100.00;149151.19;5012842;28;20026;-65
2022/12/24 02:03:18;;;;;;;62.73;17.07;;;;;;;6.72;100.00;149146.03;5007638;28;20017;-65
2022/12/24 02:05:56;;;;;;;47.53;14.97;;;;;;;6.73;100.00;149148.63;5004536;28;20041;-65
2022/12/24 02:08:22;;;;;;;50.83;15.07;;;;;;;6.71;100.00;149144.75;5009563;28;20105;-64
2022/12/24 02:10:49;;;;;;;54.37;15.80;;;;;;;6.70;100.00;149142.16;5012404;28;20113;-64
2022/12/24 02:13:17;;;;;;;58.43;15.83;;;;;;;6.72;100.00;149147.31;5012256;28;20025;-64
2022/12/24 02:15:52;;;;;;;54.30;14.67;;;;;;;6.74;100.00;149151.19;5010872;28;20030;-65
2022/12/24 02:18:38;;;;;;;58.20;17.20;;;;;;;6.76;100.00;149156.34;5012595;28;20029;-65
2022/12/24 02:21:29;;;;;;;101.40;17.67;;;;;;;6.74;100.00;149151.19;5010653;28;20030;-65
2022/12/24 02:24:13;;;;;;;59.30;15.82;;;;;;;6.77;100.00;149158.94;5011185;28;20373;-65
2022/12/24 02:26:44;;;;;;;60.00;15.63;;;;;;;6.86;100.00;149182.19;5012813;28;20033;-65
2022/12/24 02:29:46;;;;;;;62.10;17.13;;;;;;;7.07;100.00;149233.84;5012301;28;20037;-65
2022/12/24 02:32:55;;;;;;;58.13;15.85;;;;;;;7.22;100.00;149273.84;5009905;28;20069;-65
2022/12/24 02:35:37;;;;;;;62.47;17.10;;;;;;;7.41;100.00;149320.38;5009916;28;20026;-65
2022/12/24 02:38:15;;;;;;;59.33;16.93;;;;;;;7.52;100.00;149348.81;5011660;28;20415;-65
2022/12/24 02:40:47;;;;;;;43.63;13.87;;;;;;;7.68;100.00;149388.84;5011885;28;20037;-65
2022/12/24 02:43:18;;;;;;;45.20;15.77;;;;;;;7.78;100.00;149414.69;5011390;28;20026;-64
2022/12/24 02:45:49;;;;;;;44.40;16.17;;;;;;;7.91;100.00;149449.56;5005487;28;20022;-64
2022/12/24 02:48:17;;;;;;;36.67;12.98;;;;;;;7.97;100.00;149463.75;5007432;28;20125;-64
2022/12/24 02:51:15;;;;;;;40.60;15.57;;;;;;;8.04;100.00;149481.88;5009899;28;20381;-63
2022/12/24 02:53:40;;;;;;;36.30;13.33;;;;;;;8.11;100.00;149499.94;4976847;28;20444;-64
2022/12/24 02:56:24;;;;;;;50.10;17.47;;;;;;;8.21;100.00;149524.50;5012111;28;20026;-63
2022/12/24 02:59:11;;;;;;;34.33;13.13;;;;;;;8.31;100.00;149549.06;5010690;28;20382;-64
2022/12/24 03:01:47;;;;;;;31.40;12.93;;;;;;;8.45;100.00;149585.31;5011576;28;20029;-63
2022/12/24 03:04:18;;;;;;;32.77;13.27;;;;;;;8.49;100.00;149595.69;5010527;28;20048;-63
2022/12/24 03:07:14;;;;;;;30.52;12.90;;;;;;;8.57;100.00;149616.34;5011133;28;20223;-64
2022/12/24 03:09:50;;;;;;;28.20;13.23;;;;;;;8.63;100.00;149631.88;5010207;28;20033;-65
2022/12/24 03:12:23;;;;;;;28.17;12.60;;;;;;;8.69;100.00;149646.09;5011135;28;20025;-64
2022/12/24 03:14:49;;;;;;;27.37;11.77;;;;;;;8.73;100.00;149657.75;5010650;28;20071;-64
2022/12/24 03:17:16;;;;;;;26.47;11.53;;;;;;;8.85;100.00;149687.50;5012120;28;20034;-63
2022/12/24 03:19:41;;;;;;;21.43;10.10;;;;;;;8.91;100.00;149701.72;5011167;28;20022;-64
2022/12/24 03:22:10;;;;;;;20.87;7.10;;;;;;;9.01;100.00;149727.59;5011762;28;20092;-64
2022/12/24 03:24:36;;;;;;;16.13;7.33;;;;;;;9.06;100.00;149741.78;5009882;28;20389;-64
2022/12/24 03:27:05;;;;;;;19.67;10.03;;;;;;;9.28;100.00;149797.44;5011501;28;20029;-63
2022/12/24 03:29:31;;;;;;;19.27;10.63;;;;;;;9.15;100.00;149762.50;5011362;28;20381;-63
2022/12/24 03:32:02;;;;;;;19.33;8.97;;;;;;;9.16;100.00;149766.38;5010802;28;20030;-62
2022/12/24 03:34:29;;;;;;;15.57;7.50;;;;;;;9.13;100.00;149758.63;5008307;28;20230;-63
2022/12/24 03:36:55;;;;;;;14.60;7.00;;;;;;;9.20;100.00;149776.72;5013825;28;20486;-64
2022/12/24 03:39:21;;;;;;;18.13;8.60;;;;;;;9.16;100.00;149765.09;5012858;28;20072;-62
2022/12/24 03:41:47;;;;;;;17.07;9.27;;;;;;;9.21;100.00;149779.34;5015290;28;20025;-63
2022/12/24 03:44:13;;;;;;;17.40;8.20;;;;;;;9.17;100.00;149768.97;5014505;28;20056;-64
2022/12/24 03:46:42;;;;;;;10.60;5.10;;;;;;;9.20;100.00;149775.41;5014423;28;20034;-64
2022/12/24 03:49:08;;;;;;;13.27;6.87;;;;;;;9.21;100.00;149779.34;5014202;28;20355;-63
2022/12/24 03:51:33;;;;;;;13.00;7.30;;;;;;;9.20;100.00;149776.72;5014804;28;20121;-64
2022/12/24 03:53:59;;;;;;;16.47;9.20;;;;;;;9.17;100.00;149768.97;5013639;28;20036;-64
2022/12/24 03:56:30;;;;;;;13.37;7.53;;;;;;;9.14;100.00;149761.22;5015324;28;20436;-64
2022/12/24 03:59:31;;;;;;;16.80;9.15;;;;;;;9.04;100.00;149735.34;5014841;28;20038;-64
2022/12/24 04:05:03;;;;;;;15.10;7.97;;;;;;;8.99;100.00;149722.41;4985480;28;20042;-62
2022/12/24 04:08:12;;;;;;;11.30;5.83;;;;;;;8.94;100.00;149709.47;4972225;28;20038;-64
2022/12/24 04:10:37;;;;;;;16.80;8.17;;;;;;;8.91;100.00;149703.00;4934542;29;20051;-64
2022/12/24 04:13:33;;;;;;;12.27;7.10;;;;;;;8.93;100.00;149706.88;4942149;28;20034;-64
2022/12/24 04:16:41;;;;;;;17.97;7.43;;;;;;;8.97;100.00;149717.25;4985814;28;20049;-65
2022/12/24 04:19:07;;;;;;;13.90;6.87;;;;;;;8.89;100.00;149696.53;4968082;28;20046;-65
2022/12/24 04:21:38;;;;;;;14.93;5.80;;;;;;;8.97;100.00;149717.25;4977845;28;20034;-66
2022/12/24 04:24:04;;;;;;;16.80;5.57;;;;;;;9.00;100.00;149725.00;4971488;28;20066;-66
2022/12/24 04:26:38;;;;;;;12.17;4.97;;;;;;;9.09;100.00;149748.31;4977873;28;20514;-65
2022/12/24 04:29:47;;;;;;;14.27;4.07;;;;;;;9.15;100.00;149762.50;4973310;28;20039;-65
2022/12/24 04:32:13;;;;;;;16.30;5.10;;;;;;;9.01;100.00;149727.59;4972070;28;20045;-65
2022/12/24 04:34:39;;;;;;;16.37;4.30;;;;;;;9.26;100.00;149792.25;4971738;28;20518;-65
2022/12/24 04:37:04;;;;;;;16.50;4.27;;;;;;;9.25;100.00;149789.69;4971004;28;20030;-66
2022/12/24 04:39:30;;;;;;;27.27;5.90;;;;;;;9.31;100.00;149803.88;4970972;28;20041;-66
2022/12/24 04:41:55;;;;;;;24.63;4.73;;;;;;;9.34;100.00;149812.97;4991960;28;20052;-66
2022/12/24 04:44:21;;;;;;;18.37;3.90;;;;;;;9.38;100.00;149823.31;5014071;28;20408;-65
2022/12/24 04:46:46;;;;;;;32.97;5.03;;;;;;;9.32;100.00;149807.75;5012731;28;20153;-66
2022/12/24 04:49:12;;;;;;;19.80;4.43;;;;;;;9.29;100.00;149800.00;5014090;28;20109;-66
2022/12/24 04:51:37;;;;;;;26.23;4.90;;;;;;;9.36;100.00;149818.16;5014622;28;20437;-65
2022/12/24 04:54:02;;;;;;;18.73;4.00;;;;;;;9.38;100.00;149823.31;5013111;28;20088;-65
2022/12/24 04:56:30;;;;;;;21.13;3.30;;;;;;;9.42;100.00;149832.34;5011506;28;20030;-66
2022/12/24 04:58:57;;;;;;;23.67;3.77;;;;;;;9.46;100.00;149841.44;5014399;28;20033;-65
2022/12/24 05:01:26;;;;;;;24.27;4.27;;;;;;;9.40;100.00;149828.47;5012551;28;20042;-65
2022/12/24 05:03:52;;;;;;;21.13;3.47;;;;;;;9.44;100.00;149836.22;5012613;28;20017;-65
2022/12/24 05:06:21;;;;;;;22.93;3.40;;;;;;;9.43;100.00;149833.66;5012335;28;20053;-65
2022/12/24 05:08:47;;;;;;;19.40;3.20;;;;;;;9.37;100.00;149820.72;5014060;28;20469;-64
2022/12/24 05:11:14;;;;;;;16.60;3.13;;;;;;;9.34;100.00;149812.97;5012113;28;20057;-64
2022/12/24 05:13:41;;;;;;;85.60;3.77;;;;;;;9.29;100.00;149800.00;5012919;28;20030;-64
2022/12/24 05:16:07;;;;;;;24.83;3.10;;;;;;;9.26;100.00;149792.25;5013016;28;20100;-63
2022/12/24 05:18:33;;;;;;;22.77;4.03;;;;;;;9.27;100.00;149794.84;5013944;28;20033;-65
2022/12/24 05:20:58;;;;;;;14.17;3.23;;;;;;;9.27;100.00;149794.84;5013912;28;20030;-65
2022/12/24 05:26:22;;;;;;;26.23;3.67;;;;;;;9.44;100.00;149836.22;5012929;28;20398;-65
2022/12/24 05:28:52;;;;;;;26.37;3.70;;;;;;;9.32;100.00;149806.47;5011659;28;20026;-66
2022/12/24 05:31:18;;;;;;;15.60;2.40;;;;;;;9.40;100.00;149827.19;5013462;28;20537;-64
2022/12/24 05:33:44;;;;;;;12.80;2.57;;;;;;;9.52;100.00;149856.97;5011943;28;20026;-64
2022/12/24 05:36:10;;;;;;;13.17;2.23;;;;;;;9.43;100.00;149833.66;5012221;28;20037;-64
2022/12/24 05:38:36;;;;;;;10.50;2.17;;;;;;;9.42;100.00;149832.34;5013698;28;20528;-64
2022/12/24 05:41:01;;;;;;;19.67;2.93;;;;;;;9.43;100.00;149833.66;5011978;28;20030;-64
2022/12/24 05:43:27;;;;;;;22.97;4.20;;;;;;;9.36;100.00;149818.16;5012416;28;20036;-65
2022/12/24 05:46:00;;;;;;;23.07;3.60;;;;;;;9.38;100.00;149823.31;5013053;28;20034;-65
2022/12/24 05:48:25;;;;;;;26.03;3.33;;;;;;;9.25;100.00;149788.38;5012819;28;20028;-65
2022/12/24 05:50:51;;;;;;;17.93;2.90;;;;;;;9.16;100.00;149765.09;5012095;28;20112;-65
2022/12/24 05:53:17;;;;;;;19.27;2.90;;;;;;;9.16;100.00;149766.38;5013375;28;20033;-65
2022/12/24 05:55:45;;;;;;;27.10;4.17;;;;;;;9.26;100.00;149792.25;5011056;28;20402;-64
2022/12/24 05:58:11;;;;;;;20.33;3.47;;;;;;;9.38;100.00;149823.31;5010483;28;20040;-65
2022/12/24 06:00:36;;;;;;;22.47;3.30;;;;;;;9.37;100.00;149819.44;5012729;28;20413;-64
2022/12/24 06:03:02;;;;;;;26.33;3.80;;;;;;;9.16;100.00;149766.38;5013251;28;20033;-63
2022/12/24 06:05:27;;;;;;;21.83;3.60;;;;;;;9.23;100.00;149783.22;5012509;28;20037;-63
2022/12/24 06:07:53;;;;;;;15.93;2.80;;;;;;;9.14;100.00;149761.22;5012052;28;20636;-64
2022/12/24 06:10:18;;;;;;;29.27;4.53;;;;;;;9.18;100.00;149771.53;5010466;28;20022;-65
2022/12/24 06:12:44;;;;;;;25.93;4.47;;;;;;;9.15;100.00;149763.78;5012493;28;20029;-64
2022/12/24 06:15:09;;;;;;;22.57;3.20;;;;;;;9.18;100.00;149771.53;5012336;28;20103;-65
2022/12/24 06:17:35;;;;;;;22.63;4.13;;;;;;;9.15;100.00;149763.78;5011370;28;20026;-65
2022/12/24 06:20:00;;;;;;;27.30;5.20;;;;;;;8.99;100.00;149722.41;5012714;28;20531;-65
2022/12/24 06:22:25;;;;;;;23.97;3.60;;;;;;;9.00;100.00;149725.00;5012037;28;20108;-64
2022/12/24 06:24:51;;;;;;;23.10;3.80;;;;;;;9.09;100.00;149748.31;5010288;28;20049;-65
2022/12/24 06:27:16;;;;;;;28.77;4.63;;;;;;;9.04;100.00;149735.34;5012704;28;20030;-63
2022/12/24 06:29:41;;;;;;;30.60;5.27;;;;;;;9.08;100.00;149745.66;5012580;28;20021;-63
2022/12/24 06:32:07;;;;;;;31.87;5.47;;;;;;;9.03;100.00;149732.75;5012773;28;20506;-63
2022/12/24 06:34:32;;;;;;;31.53;4.90;;;;;;;9.03;100.00;149732.75;5012424;28;20076;-64
2022/12/24 06:36:57;;;;;;;20.83;4.43;;;;;;;9.08;100.00;149745.66;5010940;28;20486;-64
2022/12/24 06:39:23;;;;;;;23.37;4.70;;;;;;;9.11;100.00;149753.47;5004412;28;20036;-64
2022/12/24 06:41:48;;;;;;;32.13;5.50;;;;;;;9.14;100.00;149761.22;5011653;28;20026;-64
2022/12/24 06:44:14;;;;;;;29.63;5.80;;;;;;;9.14;100.00;149761.22;5011976;28;20058;-65
2022/12/24 06:46:39;;;;;;;24.93;4.83;;;;;;;9.17;100.00;149767.69;5012259;28;20021;-63
2022/12/24 06:49:04;;;;;;;24.43;4.93;;;;;;;9.20;100.00;149775.41;5012152;28;20064;-64
2022/12/24 06:51:30;;;;;;;40.37;6.20;;;;;;;9.19;100.00;149774.13;5010996;28;20029;-64
2022/12/24 06:53:55;;;;;;;37.87;6.57;;;;;;;9.08;100.00;149745.66;5009808;28;20025;-63
2022/12/24 06:56:21;;;;;;;34.53;6.10;;;;;;;9.15;100.00;149762.50;5010864;28;20036;-64
2022/12/24 06:58:46;;;;;;;27.70;5.90;;;;;;;9.12;100.00;149756.06;5012234;28;20119;-64
2022/12/24 07:01:14;;;;;;;33.37;6.03;;;;;;;9.16;100.00;149766.38;5011157;28;20030;-64
2022/12/24 07:03:40;;;;;;;33.73;5.83;;;;;;;9.16;100.00;149766.38;5011974;28;20028;-64
2022/12/24 07:06:10;;;;;;;37.17;7.43;;;;;;;9.01;100.00;149727.59;5011635;28;20033;-64
2022/12/24 07:08:35;;;;;;;31.17;5.43;;;;;;;8.99;100.00;149723.72;5009880;28;20026;-64
2022/12/24 07:11:01;;;;;;;25.93;5.27;;;;;;;9.01;100.00;149727.59;5010077;28;20440;-64
2022/12/24 07:13:28;;;;;;;33.27;5.70;;;;;;;8.93;100.00;149708.16;5011606;28;20022;-64
2022/12/24 07:16:01;;;;;;;31.13;4.83;;;;;;;8.87;100.00;149691.38;5011894;28;20033;-63
2022/12/24 07:18:27;;;;;;;37.00;5.30;;;;;;;8.81;100.00;149678.41;5010362;28;20048;-63
2022/12/24 07:20:53;;;;;;;37.33;5.77;;;;;;;8.78;100.00;149670.66;5011514;28;20045;-63
2022/12/24 07:23:18;;;;;;;40.63;6.57;;;;;;;8.79;100.00;149673.25;5009701;28;20117;-64
2022/12/24 07:25:44;;;;;;;42.53;6.10;;;;;;;8.76;100.00;149665.50;5010737;28;20028;-65
2022/12/24 07:28:09;;;;;;;35.60;5.53;;;;;;;8.85;100.00;149686.22;5011657;28;20026;-64
2022/12/24 07:30:35;;;;;;;39.70;6.00;;;;;;;8.86;100.00;149688.78;5011703;28;20108;-64
2022/12/24 07:33:00;;;;;;;31.03;4.97;;;;;;;8.88;100.00;149695.25;5011758;28;20022;-64
2022/12/24 07:35:25;;;;;;;32.40;6.07;;;;;;;8.79;100.00;149673.25;5010334;28;20069;-64
2022/12/24 07:37:51;;;;;;;28.20;5.03;;;;;;;8.79;100.00;149673.25;5009974;28;20080;-64
2022/12/24 07:40:16;;;;;;;33.47;5.43;;;;;;;8.75;100.00;149662.94;5011461;28;20369;-64
2022/12/24 07:42:42;;;;;;;34.53;7.10;;;;;;;8.78;100.00;149670.66;5009747;28;20378;-64
2022/12/24 07:45:08;;;;;;;30.33;5.50;;;;;;;8.81;100.00;149678.41;5011579;28;20433;-63
2022/12/24 07:47:34;;;;;;;37.40;6.20;;;;;;;8.82;100.00;149681.00;5011085;28;20525;-62
2022/12/24 07:49:59;;;;;;;32.60;6.53;;;;;;;8.86;100.00;149688.78;5010411;28;20022;-63
2022/12/24 07:52:25;;;;;;;44.77;6.87;;;;;;;8.87;100.00;149691.38;5011815;28;20033;-63
2022/12/24 07:54:50;;;;;;;36.73;6.33;;;;;;;8.84;100.00;149683.59;5011551;28;20385;-63
2022/12/24 07:57:16;;;;;;;23.03;4.30;;;;;;;8.81;100.00;149678.41;5009697;28;20030;-63
2022/12/24 07:59:41;;;;;;;33.53;6.37;;;;;;;8.87;100.00;149691.38;5011629;28;20038;-63
2022/12/24 08:02:18;;;;;;;39.00;6.37;;;;;;;8.84;100.00;149684.88;5009659;28;20041;-63
2022/12/24 08:04:44;;;;;;;35.87;5.70;;;;;;;8.88;100.00;149693.97;5002799;28;20030;-63
2022/12/24 08:07:09;;;;;;;32.27;6.10;;;;;;;8.97;100.00;149718.56;5011468;28;20022;-63
2022/12/24 08:09:36;;;;;;;34.10;6.00;;;;;;;8.93;100.00;149706.88;5011435;28;20092;-63
2022/12/24 08:12:01;;;;;;;41.67;6.40;;;;;;;9.02;100.00;149730.16;5009567;28;20026;-63
2022/12/24 08:14:30;;;;;;;30.83;6.07;;;;;;;8.94;100.00;149710.75;5003252;28;20033;-63
2022/12/24 08:16:56;;;;;;;39.53;6.63;;;;;;;8.95;100.00;149712.03;5011463;28;20101;-63
2022/12/24 08:19:21;;;;;;;29.93;5.93;;;;;;;8.97;100.00;149717.25;5009473;28;20197;-63
2022/12/24 08:21:47;;;;;;;30.27;5.87;;;;;;;8.95;100.00;149712.03;5011861;28;20029;-63
2022/12/24 08:24:12;;;;;;;35.40;5.70;;;;;;;8.91;100.00;149703.00;5014077;28;20025;-63
2022/12/24 08:26:38;;;;;;;44.20;7.07;;;;;;;8.82;100.00;149679.72;5013469;28;20026;-62
2022/12/24 08:29:04;;;;;;;39.47;6.60;;;;;;;8.73;100.00;149656.47;5014094;28;20030;-63
2022/12/24 08:31:35;;;;;;;40.43;6.60;;;;;;;8.58;100.00;149617.63;5010976;28;20473;-63
2022/12/24 08:34:02;;;;;;;31.33;5.57;;;;;;;8.56;100.00;149613.75;5006364;28;20036;-63
2022/12/24 08:36:27;;;;;;;33.17;6.63;;;;;;;8.60;100.00;149624.13;5012353;28;20033;-63
2022/12/24 08:38:52;;;;;;;38.90;6.43;;;;;;;8.65;100.00;149635.75;5009235;28;20034;-63
2022/12/24 08:41:18;;;;;;;28.33;6.43;;;;;;;8.59;100.00;149621.50;5011807;28;20032;-63
2022/12/24 08:43:43;;;;;;;31.30;7.03;;;;;;;8.60;100.00;149624.13;5010030;28;20462;-62
2022/12/24 08:46:09;;;;;;;42.17;7.87;;;;;;;8.71;100.00;149652.53;5004702;28;20029;-63
2022/12/24 08:48:35;;;;;;;34.00;6.87;;;;;;;8.79;100.00;149673.25;5011411;28;20459;-63
2022/12/24 08:51:08;;;;;;;47.23;7.10;;;;;;;8.86;100.00;149688.78;5012418;28;20381;-64
2022/12/24 08:53:53;;;;;;;31.67;7.03;;;;;;;8.79;100.00;149673.25;5005844;28;20410;-63
2022/12/24 08:56:18;;;;;;;40.43;6.93;;;;;;;8.81;100.00;149677.13;5003873;28;20033;-62
2022/12/24 08:58:43;;;;;;;38.17;7.90;;;;;;;8.90;100.00;149700.41;5009695;28;20033;-62
2022/12/24 09:01:12;;;;;;;29.73;6.60;;;;;;;9.00;100.00;149726.28;5006352;28;20033;-62
2022/12/24 09:03:37;;;;;;;37.50;7.33;;;;;;;9.07;100.00;149743.09;5009907;28;20034;-63
2022/12/24 09:06:04;;;;;;;44.00;7.30;;;;;;;9.18;100.00;149771.53;5012127;28;20026;-62
2022/12/24 09:08:30;;;;;;;37.30;7.00;;;;;;;9.28;100.00;149797.44;5006012;28;20028;-63
2022/12/24 09:10:55;;;;;;;31.87;6.80;;;;;;;9.30;100.00;149802.59;5014654;28;20030;-63
2022/12/24 09:13:20;;;;;;;40.83;7.93;;;;;;;9.51;100.00;149854.38;5024561;28;20470;-62
2022/12/24 09:15:55;;;;;;;45.87;7.53;;;;;;;9.62;100.00;149884.13;5016515;28;20026;-63
2022/12/24 09:18:20;;;;;;;37.30;7.47;;;;;;;9.65;100.00;149890.59;5002693;28;20501;-63
2022/12/24 09:20:45;;;;;;;45.53;9.17;;;;;;;9.67;100.00;149895.78;5013970;28;20025;-63
2022/12/24 09:23:11;;;;;;;41.73;11.80;;;;;;;9.75;100.00;149916.50;5011904;28;20029;-63
2022/12/24 09:25:41;;;;;;;42.90;11.70;;;;;;;9.76;100.00;149919.06;5011332;28;20018;-62
2022/12/24 09:28:06;;;;;;;33.07;8.97;;;;;;;9.76;100.00;149917.78;5021484;28;20461;-63
2022/12/24 09:30:32;;;;;;;36.13;7.77;;;;;;;9.58;100.00;149872.50;5013569;28;20029;-63
2022/12/24 09:32:57;;;;;;;43.10;9.27;;;;;;;9.49;100.00;149849.19;5010884;28;20041;-64
2022/12/24 09:35:22;;;;;;;44.77;8.93;;;;;;;9.44;100.00;149837.53;5010734;28;20386;-62
2022/12/24 09:38:01;;;;;;;45.37;9.40;;;;;;;9.39;100.00;149824.59;5015252;28;20048;-65
2022/12/24 09:40:34;;;;;;;35.97;8.27;;;;;;;9.30;100.00;149802.59;5006131;28;20463;-63
2022/12/24 09:43:03;;;;;;;30.93;8.87;;;;;;;9.32;100.00;149807.75;4992436;28;20042;-64
2022/12/24 09:45:31;;;;;;;42.43;9.30;;;;;;;9.34;100.00;149812.97;5011520;28;20061;-64
2022/12/24 09:48:03;;;;;;;28.87;7.47;;;;;;;9.33;100.00;149810.41;5011958;28;20040;-63
2022/12/24 09:50:54;;;;;;;43.40;8.30;;;;;;;9.37;100.00;149819.44;5011653;28;20025;-63
2022/12/24 09:53:34;;;;;;;41.03;9.90;;;;;;;9.49;100.00;149849.19;5011402;28;20042;-63
2022/12/24 09:56:03;;;;;;;40.80;9.07;;;;;;;9.45;100.00;149838.81;5009160;28;20038;-63
2022/12/24 09:58:44;;;;;;;36.50;9.13;;;;;;;9.46;100.00;149842.75;5010252;28;20373;-63
2022/12/24 10:01:12;;;;;;;44.03;9.23;;;;;;;9.58;100.00;149872.50;5008843;28;20424;-63
2022/12/24 10:03:38;;;;;;;42.53;9.97;;;;;;;9.57;100.00;149869.88;5007953;28;20026;-64
2022/12/24 10:06:11;;;;;;;44.53;8.93;;;;;;;9.64;100.00;149888.00;5019457;28;20021;-63
2022/12/24 10:09:01;;;;;;;44.70;9.60;;;;;;;9.78;100.00;149924.25;5007895;28;20478;-63
2022/12/24 10:11:35;;;;;;;39.93;9.57;;;;;;;9.85;100.00;149942.38;5011933;28;20108;-64
2022/12/24 10:14:00;;;;;;;36.13;9.43;;;;;;;9.76;100.00;149917.78;5015957;28;20017;-64
2022/12/24 10:16:38;;;;;;;40.57;9.53;;;;;;;9.69;100.00;149900.94;5010275;28;20486;-63
2022/12/24 10:19:20;;;;;;;44.43;10.07;;;;;;;9.72;100.00;149908.72;5006052;28;20025;-63
2022/12/24 10:22:05;;;;;;;44.77;9.33;;;;;;;9.78;100.00;149924.25;5027927;28;20040;-63
2022/12/24 10:24:46;;;;;;;40.20;9.90;;;;;;;9.85;100.00;149942.38;5012013;28;20041;-63
2022/12/24 10:27:15;;;;;;;38.70;9.90;;;;;;;9.88;100.00;149948.84;5006891;28;20103;-63
2022/12/24 10:29:46;;;;;;;33.60;9.20;;;;;;;10.04;100.00;149988.97;5012678;28;20088;-63
2022/12/24 10:32:30;;;;;;;40.03;11.10;;;;;;;10.03;100.00;149986.38;5020843;28;20465;-63
2022/12/24 10:35:10;;;;;;;46.93;10.13;;;;;;;9.90;100.00;149955.31;5010492;28;20292;-63
2022/12/24 10:37:36;;;;;;;34.73;8.43;;;;;;;9.97;100.00;149973.47;5006515;28;20033;-63
2022/12/24 10:40:02;;;;;;;41.83;10.13;;;;;;;9.89;100.00;149951.44;5016726;28;20104;-63
2022/12/24 10:42:41;;;;;;;42.50;9.70;;;;;;;9.98;100.00;149976.03;5007436;28;20018;-63
2022/12/24 10:45:13;;;;;;;40.00;9.43;;;;;;;10.12;100.00;150009.69;5006438;28;21390;-63
2022/12/24 10:47:41;;;;;;;33.30;9.53;;;;;;;10.18;100.00;150026.56;5004306;28;20037;-63
2022/12/24 10:50:17;;;;;;;33.73;9.70;;;;;;;10.56;100.00;150123.72;5000623;28;20026;-64
2022/12/24 10:52:44;;;;;;;28.77;9.50;;;;;;;10.63;100.00;150139.22;4998645;28;20029;-63
2022/12/24 10:55:16;;;;;;;25.63;8.00;;;;;;;10.43;100.00;150090.06;4997620;28;20513;-63
2022/12/24 10:57:42;;;;;;;29.60;9.15;;;;;;;10.50;100.00;150108.16;5004424;28;20038;-63
2022/12/24 11:00:23;;;;;;;31.23;7.27;;;;;;;10.42;100.00;150087.47;5004682;28;20041;-63
2022/12/24 11:03:04;;;;;;;23.20;7.33;;;;;;;10.36;100.00;150071.91;5005244;28;20036;-63
2022/12/24 11:05:35;;;;;;;24.67;7.00;;;;;;;10.41;100.00;150084.81;5005295;28;20032;-63
2022/12/24 11:08:02;;;;;;;23.27;6.00;;;;;;;10.30;100.00;150055.03;5016276;28;20057;-63
2022/12/24 11:10:29;;;;;;;27.00;7.50;;;;;;;10.43;100.00;150090.06;5009359;28;20061;-63
2022/12/24 11:12:55;;;;;;;23.80;5.70;;;;;;;10.32;100.00;150061.56;5005108;28;20088;-63
2022/12/24 11:15:30;;;;;;;23.60;6.93;;;;;;;10.32;100.00;150061.56;5007660;28;20030;-63
2022/12/24 11:18:04;;;;;;;23.73;6.53;;;;;;;10.33;100.00;150064.16;5017352;28;20033;-64
2022/12/24 11:20:34;;;;;;;28.77;6.83;;;;;;;10.47;100.00;150100.41;5015425;28;20025;-64
2022/12/24 11:23:01;;;;;;;29.10;7.13;;;;;;;10.49;100.00;150104.28;5010172;28;20034;-63
2022/12/24 11:25:30;;;;;;;22.33;6.63;;;;;;;10.51;100.00;150109.44;5009256;28;20030;-64
2022/12/24 11:27:56;;;;;;;29.07;7.70;;;;;;;10.49;100.00;150105.56;5011395;28;20450;-63
2022/12/24 11:30:26;;;;;;;24.73;7.50;;;;;;;10.74;100.00;150167.75;5017575;28;20060;-63
2022/12/24 11:33:15;;;;;;;24.60;7.00;;;;;;;10.83;100.00;150191.06;5005782;28;20025;-63